createdAt,value
2022-10-07T00:01:06.431Z,100.00
2022-10-07T00:03:35.145Z,100.00
2022-10-07T00:06:05.584Z,100.00
2022-10-07T00:08:35.427Z,100.00
2022-10-07T00:11:08.495Z,100.00
2022-10-07T00:13:39.621Z,100.00
2022-10-07T00:16:10.642Z,100.00
2022-10-07T00:18:40.505Z,100.00
2022-10-07T00:21:11.184Z,100.00
2022-10-07T00:23:39.328Z,100.00
2022-10-07T00:26:10.821Z,100.00
2022-10-07T00:28:38.865Z,100.00
2022-10-07T00:31:09.455Z,100.00
2022-10-07T00:33:40.812Z,100.00
2022-10-07T00:36:10.062Z,100.00
2022-10-07T00:38:38.081Z,100.00
2022-10-07T00:41:06.384Z,100.00
2022-10-07T00:43:36.003Z,100.00
2022-10-07T00:46:08.936Z,100.00
2022-10-07T00:48:38.624Z,100.00
2022-10-07T00:51:09.291Z,100.00
2022-10-07T00:53:42.101Z,100.00
2022-10-07T00:56:11.242Z,100.00
2022-10-07T00:58:43.091Z,100.00
2022-10-07T01:01:11.231Z,100.00
2022-10-07T01:03:39.525Z,100.00
2022-10-07T01:06:07.513Z,100.00
2022-10-07T01:08:35.660Z,100.00
2022-10-07T01:11:14.781Z,100.00
2022-10-07T01:13:59.766Z,100.00
2022-10-07T01:16:35.716Z,100.00
2022-10-07T01:19:14.453Z,100.00
2022-10-07T01:21:56.116Z,100.00
2022-10-07T01:24:35.652Z,100.00
2022-10-07T01:27:11.148Z,100.00
2022-10-07T01:29:42.030Z,100.00
2022-10-07T01:32:17.240Z,100.00
2022-10-07T01:34:47.881Z,100.00
2022-10-07T01:37:19.738Z,100.00
2022-10-07T01:39:51.047Z,100.00
2022-10-07T01:42:21.613Z,100.00
2022-10-07T01:44:55.040Z,100.00
2022-10-07T01:47:23.287Z,100.00
2022-10-07T01:49:51.301Z,100.00
2022-10-07T01:52:34.900Z,100.00
2022-10-07T01:55:30.061Z,100.00
2022-10-07T01:58:10.009Z,100.00
2022-10-07T02:00:44.282Z,100.00
2022-10-07T02:03:29.531Z,100.00
2022-10-07T02:06:07.343Z,100.00
2022-10-07T02:08:44.028Z,100.00
2022-10-07T02:11:15.603Z,100.00
2022-10-07T02:14:00.867Z,100.00
2022-10-07T02:16:38.350Z,100.00
2022-10-07T02:19:10.960Z,100.00
2022-10-07T02:21:40.114Z,100.00
2022-10-07T02:24:11.712Z,100.00
2022-10-07T02:26:43.475Z,100.00
2022-10-07T02:29:15.561Z,100.00
2022-10-07T02:31:46.103Z,100.00
2022-10-07T02:34:19.987Z,100.00
2022-10-07T02:36:54.304Z,100.00
2022-10-07T02:39:22.489Z,100.00
2022-10-07T02:42:03.537Z,100.00
2022-10-07T02:44:40.930Z,100.00
2022-10-07T02:47:16.124Z,100.00
2022-10-07T02:49:47.645Z,100.00
2022-10-07T02:52:19.036Z,100.00
2022-10-07T02:54:52.554Z,100.00
2022-10-07T02:57:22.821Z,100.00
2022-10-07T02:59:54.558Z,100.00
2022-10-07T03:02:28.382Z,100.00
2022-10-07T03:04:58.088Z,100.00
2022-10-07T03:07:26.728Z,100.00
2022-10-07T03:09:55.254Z,100.00
2022-10-07T03:12:23.189Z,100.00
2022-10-07T03:14:53.746Z,100.00
2022-10-07T03:17:22.362Z,100.00
2022-10-07T03:19:51.143Z,100.00
2022-10-07T03:22:19.132Z,100.00
2022-10-07T03:24:47.004Z,100.00
2022-10-07T03:27:14.972Z,100.00
2022-10-07T03:29:43.188Z,100.00
2022-10-07T03:32:13.081Z,100.00
2022-10-07T03:34:41.095Z,100.00
2022-10-07T03:37:09.297Z,100.00
2022-10-07T03:39:37.279Z,100.00
2022-10-07T03:42:05.975Z,100.00
2022-10-07T03:44:35.566Z,100.00
2022-10-07T03:47:07.612Z,100.00
2022-10-07T03:49:41.486Z,100.00
2022-10-07T03:52:09.725Z,100.00
2022-10-07T03:54:37.863Z,100.00
2022-10-07T03:57:28.249Z,100.00
2022-10-07T03:59:58.758Z,100.00
2022-10-07T04:02:26.790Z,100.00
2022-10-07T04:04:57.433Z,100.00
2022-10-07T04:07:25.896Z,100.00
2022-10-07T04:09:53.887Z,100.00
2022-10-07T04:12:22.499Z,100.00
2022-10-07T04:14:50.471Z,100.00
2022-10-07T04:17:19.645Z,100.00
2022-10-07T04:19:47.798Z,100.00
2022-10-07T04:22:19.181Z,100.00
2022-10-07T04:25:13.446Z,100.00
2022-10-07T04:27:51.613Z,100.00
2022-10-07T04:30:20.035Z,100.00
2022-10-07T04:32:50.566Z,100.00
2022-10-07T04:35:22.827Z,100.00
2022-10-07T04:37:54.418Z,100.00
2022-10-07T04:40:25.475Z,100.00
2022-10-07T04:43:10.908Z,100.00
2022-10-07T04:45:40.587Z,100.00
2022-10-07T04:48:09.644Z,100.00
2022-10-07T04:50:40.021Z,100.00
2022-10-07T04:53:14.186Z,100.00
2022-10-07T04:55:44.470Z,100.00
2022-10-07T04:58:13.640Z,100.00
2022-10-07T05:00:46.225Z,100.00
2022-10-07T05:03:16.222Z,100.00
2022-10-07T05:05:45.570Z,100.00
2022-10-07T05:08:18.798Z,100.00
2022-10-07T05:10:47.809Z,100.00
2022-10-07T05:13:17.806Z,100.00
2022-10-07T05:15:51.967Z,100.00
2022-10-07T05:18:21.353Z,100.00
2022-10-07T05:20:50.590Z,100.00
2022-10-07T05:23:27.107Z,100.00
2022-10-07T05:25:59.460Z,100.00
2022-10-07T05:28:27.849Z,100.00
2022-10-07T05:31:04.145Z,100.00
2022-10-07T05:33:32.322Z,100.00
2022-10-07T05:36:00.446Z,100.00
2022-10-07T05:38:30.076Z,100.00
2022-10-07T05:41:02.272Z,100.00
2022-10-07T05:43:34.566Z,100.00
2022-10-07T05:46:07.232Z,100.00
2022-10-07T05:48:40.161Z,100.00
2022-10-07T05:51:09.571Z,100.00
2022-10-07T05:53:41.106Z,100.00
2022-10-07T05:56:10.968Z,100.00
2022-10-07T05:58:39.683Z,100.00
2022-10-07T06:01:15.776Z,100.00
2022-10-07T06:03:49.314Z,100.00
2022-10-07T06:06:17.588Z,100.00
2022-10-07T06:08:47.953Z,100.00
2022-10-07T06:11:35.953Z,100.00
2022-10-07T06:14:05.042Z,100.00
2022-10-07T06:16:33.759Z,100.00
2022-10-07T06:19:02.258Z,100.00
2022-10-07T06:21:32.266Z,100.00
2022-10-07T06:24:05.857Z,100.00
2022-10-07T06:26:35.914Z,100.00
2022-10-07T06:29:05.525Z,100.00
2022-10-07T06:31:33.911Z,100.00
2022-10-07T06:34:04.744Z,100.00
2022-10-07T06:36:34.223Z,100.00
2022-10-07T06:39:02.571Z,100.00
2022-10-07T06:41:38.386Z,100.00
2022-10-07T06:44:20.180Z,100.00
2022-10-07T06:46:48.174Z,100.00
2022-10-07T06:49:17.099Z,100.00
2022-10-07T06:51:46.642Z,100.00
2022-10-07T06:54:14.750Z,100.00
2022-10-07T06:56:44.040Z,100.00
2022-10-07T06:59:12.421Z,100.00
2022-10-07T07:01:58.012Z,100.00
2022-10-07T07:04:26.535Z,100.00
2022-10-07T07:06:54.868Z,100.00
2022-10-07T07:09:22.891Z,100.00
2022-10-07T07:11:56.591Z,100.00
2022-10-07T07:14:28.835Z,100.00
2022-10-07T07:17:04.690Z,100.00
2022-10-07T07:19:33.153Z,100.00
2022-10-07T07:22:01.774Z,100.00
2022-10-07T07:24:29.773Z,100.00
2022-10-07T07:26:59.795Z,100.00
2022-10-07T07:29:30.700Z,100.00
2022-10-07T07:32:02.118Z,100.00
2022-10-07T07:34:33.953Z,100.00
2022-10-07T07:37:01.750Z,100.00
2022-10-07T07:39:35.668Z,100.00
2022-10-07T07:42:10.360Z,100.00
2022-10-07T07:44:38.871Z,100.00
2022-10-07T07:47:10.416Z,100.00
2022-10-07T07:49:39.539Z,100.00
2022-10-07T07:52:10.930Z,100.00
2022-10-07T07:54:43.825Z,100.00
2022-10-07T07:57:13.206Z,100.00
2022-10-07T07:59:42.602Z,100.00
2022-10-07T08:02:13.043Z,100.00
2022-10-07T08:04:44.730Z,100.00
2022-10-07T08:07:13.595Z,100.00
2022-10-07T08:09:44.529Z,100.00
2022-10-07T08:12:16.451Z,100.00
2022-10-07T08:14:44.446Z,100.00
2022-10-07T08:17:13.847Z,100.00
2022-10-07T08:19:42.172Z,100.00
2022-10-07T08:22:13.694Z,100.00
2022-10-07T08:24:43.054Z,100.00
2022-10-07T08:27:11.121Z,100.00
2022-10-07T08:29:40.492Z,100.00
2022-10-07T08:32:08.612Z,100.00
2022-10-07T08:34:36.645Z,100.00
2022-10-07T08:37:04.639Z,100.00
2022-10-07T08:39:32.524Z,100.00
2022-10-07T08:42:08.401Z,100.00
2022-10-07T08:44:41.597Z,100.00
2022-10-07T08:47:19.047Z,100.00
2022-10-07T08:49:58.561Z,100.00
2022-10-07T08:52:33.170Z,100.00
2022-10-07T08:55:01.619Z,100.00
2022-10-07T08:57:45.755Z,100.00
2022-10-07T09:00:21.067Z,100.00
2022-10-07T09:03:07.300Z,100.00
2022-10-07T09:05:41.236Z,100.00
2022-10-07T09:08:17.242Z,100.00
2022-10-07T09:10:49.617Z,100.00
2022-10-07T09:13:21.045Z,100.00
2022-10-07T09:16:12.498Z,100.00
2022-10-07T09:18:44.987Z,100.00
2022-10-07T09:21:17.157Z,100.00
2022-10-07T09:23:47.356Z,100.00
2022-10-07T09:26:16.599Z,100.00
2022-10-07T09:28:44.647Z,100.00
2022-10-07T09:31:16.260Z,100.00
2022-10-07T09:33:46.779Z,100.00
2022-10-07T09:36:18.995Z,100.00
2022-10-07T09:38:49.110Z,100.00
2022-10-07T09:41:20.676Z,100.00
2022-10-07T09:43:58.119Z,100.00
2022-10-07T09:46:47.218Z,100.00
2022-10-07T09:49:32.449Z,100.00
2022-10-07T09:52:01.884Z,100.00
2022-10-07T09:54:31.718Z,100.00
2022-10-07T09:57:01.628Z,100.00
2022-10-07T09:59:32.814Z,100.00
2022-10-07T10:02:10.667Z,100.00
2022-10-07T10:04:47.298Z,100.00
2022-10-07T10:07:20.116Z,100.00
2022-10-07T10:09:50.632Z,100.00
2022-10-07T10:12:21.039Z,100.00
2022-10-07T10:14:50.097Z,100.00
2022-10-07T10:17:31.971Z,100.00
2022-10-07T10:20:30.819Z,100.00
2022-10-07T10:23:00.194Z,100.00
2022-10-07T10:25:58.441Z,100.00
2022-10-07T10:28:42.915Z,100.00
2022-10-07T10:31:23.688Z,100.00
2022-10-07T10:33:59.634Z,100.00
2022-10-07T10:36:31.832Z,100.00
2022-10-07T10:39:04.645Z,100.00
2022-10-07T10:41:40.045Z,100.00
2022-10-07T10:44:28.325Z,100.00
2022-10-07T10:47:02.126Z,100.00
2022-10-07T10:49:38.594Z,100.00
2022-10-07T10:52:21.094Z,100.00
2022-10-07T10:55:06.528Z,100.00
2022-10-07T10:57:43.980Z,100.00
2022-10-07T11:00:16.713Z,100.00
2022-10-07T11:03:01.723Z,100.00
2022-10-07T11:05:34.873Z,100.00
2022-10-07T11:08:08.706Z,100.00
2022-10-07T11:10:41.547Z,100.00
2022-10-07T11:13:23.887Z,99.73
2022-10-07T11:15:56.952Z,100.00
2022-10-07T11:18:42.238Z,100.00
2022-10-07T11:21:18.164Z,100.00
2022-10-07T11:23:53.831Z,100.00
2022-10-07T11:26:32.263Z,92.19
2022-10-07T11:29:19.378Z,92.34
2022-10-07T11:31:57.369Z,100.00
2022-10-07T11:34:34.863Z,92.45
2022-10-07T11:37:09.612Z,94.76
2022-10-07T11:39:39.177Z,97.24
2022-10-07T11:42:10.977Z,91.71
2022-10-07T11:44:49.140Z,87.20
2022-10-07T11:47:23.593Z,89.51
2022-10-07T11:49:57.957Z,87.24
2022-10-07T11:52:29.790Z,83.07
2022-10-07T11:55:04.002Z,87.56
2022-10-07T11:57:35.259Z,87.60
2022-10-07T12:00:08.089Z,81.98
2022-10-07T12:02:45.426Z,84.38
2022-10-07T12:05:57.482Z,85.14
2022-10-07T12:08:32.848Z,82.22
2022-10-07T12:11:43.814Z,88.50
2022-10-07T12:14:41.949Z,79.40
2022-10-07T12:17:30.199Z,78.80
2022-10-07T12:20:44.916Z,79.02
2022-10-07T12:23:49.379Z,78.91
2022-10-07T12:26:53.611Z,81.37
2022-10-07T12:29:29.905Z,79.22
2022-10-07T12:31:58.162Z,78.40
2022-10-07T12:34:39.085Z,82.08
2022-10-07T12:37:45.184Z,78.53
2022-10-07T12:40:18.447Z,71.80
2022-10-07T12:42:59.299Z,71.13
2022-10-07T12:45:30.894Z,72.14
2022-10-07T12:48:01.774Z,71.11
2022-10-07T12:50:33.400Z,78.04
2022-10-07T12:53:03.877Z,73.49
2022-10-07T12:55:36.958Z,74.02
2022-10-07T12:58:38.514Z,70.14
2022-10-07T13:01:23.058Z,71.35
2022-10-07T13:04:31.389Z,75.49
2022-10-07T13:07:39.743Z,77.03
2022-10-07T13:10:29.152Z,80.60
2022-10-07T13:13:04.294Z,76.09
2022-10-07T13:15:42.622Z,79.05
2022-10-07T13:18:20.227Z,72.31
2022-10-07T13:21:03.520Z,73.67
2022-10-07T13:23:32.432Z,78.19
2022-10-07T13:26:02.730Z,79.88
2022-10-07T13:28:38.480Z,85.44
2022-10-07T13:31:17.922Z,84.43
2022-10-07T13:33:46.381Z,75.98
2022-10-07T13:36:17.445Z,79.43
2022-10-07T13:38:47.600Z,84.26
2022-10-07T13:41:21.320Z,78.21
2022-10-07T13:43:52.445Z,81.27
2022-10-07T13:46:23.784Z,85.31
2022-10-07T13:48:54.998Z,82.32
2022-10-07T13:51:29.851Z,83.49
2022-10-07T13:53:59.922Z,77.47
2022-10-07T13:56:31.742Z,79.49
2022-10-07T13:59:00.883Z,79.17
2022-10-07T14:01:32.545Z,79.49
2022-10-07T14:04:11.402Z,84.47
2022-10-07T14:06:49.306Z,78.52
2022-10-07T14:09:18.899Z,80.41
2022-10-07T14:11:48.291Z,81.74
2022-10-07T14:14:19.020Z,80.35
2022-10-07T14:16:54.208Z,79.53
2022-10-07T14:19:22.354Z,77.92
2022-10-07T14:21:50.503Z,79.67
2022-10-07T14:24:21.124Z,81.15
2022-10-07T14:26:49.037Z,90.61
2022-10-07T14:29:35.579Z,92.54
2022-10-07T14:32:30.803Z,87.12
2022-10-07T14:35:22.048Z,91.51
2022-10-07T14:37:50.284Z,90.02
2022-10-07T14:40:21.077Z,87.30
2022-10-07T14:42:54.474Z,83.66
2022-10-07T14:45:23.709Z,86.47
2022-10-07T14:47:52.965Z,86.90
2022-10-07T14:50:21.791Z,95.02
2022-10-07T14:52:52.754Z,93.08
2022-10-07T14:55:24.621Z,95.25
2022-10-07T14:57:52.816Z,98.95
2022-10-07T15:00:22.662Z,99.31
2022-10-07T15:02:51.323Z,100.00
2022-10-07T15:05:20.729Z,100.00
2022-10-07T15:07:49.927Z,99.37
2022-10-07T15:10:20.658Z,98.56
2022-10-07T15:12:49.342Z,98.36
2022-10-07T15:15:18.166Z,100.00
2022-10-07T15:17:47.534Z,100.00
2022-10-07T15:20:16.890Z,100.00
2022-10-07T15:22:46.505Z,100.00
2022-10-07T15:25:15.669Z,100.00
2022-10-07T15:27:43.872Z,100.00
2022-10-07T15:30:13.329Z,100.00
2022-10-07T15:32:41.288Z,100.00
2022-10-07T15:35:09.848Z,100.00
2022-10-07T15:37:37.860Z,100.00
2022-10-07T15:40:08.796Z,100.00
2022-10-07T15:42:37.078Z,100.00
2022-10-07T15:45:05.554Z,100.00
2022-10-07T15:47:34.406Z,100.00
2022-10-07T15:50:02.436Z,100.00
2022-10-07T15:52:30.473Z,100.00
2022-10-07T15:54:58.386Z,100.00
2022-10-07T15:57:27.604Z,100.00
2022-10-07T15:59:55.533Z,100.00
2022-10-07T16:02:24.693Z,100.00
2022-10-07T16:04:52.923Z,100.00
2022-10-07T16:07:20.805Z,100.00
2022-10-07T16:09:48.985Z,100.00
2022-10-07T16:12:17.092Z,100.00
2022-10-07T16:14:47.357Z,100.00
2022-10-07T16:17:15.336Z,100.00
2022-10-07T16:19:43.212Z,100.00
2022-10-07T16:22:11.097Z,100.00
2022-10-07T16:24:39.673Z,100.00
2022-10-07T16:27:07.709Z,100.00
2022-10-07T16:29:53.299Z,100.00
2022-10-07T16:32:22.608Z,100.00
2022-10-07T16:34:50.748Z,100.00
2022-10-07T16:37:18.790Z,100.00
2022-10-07T16:39:46.848Z,100.00
2022-10-07T16:42:14.793Z,100.00
2022-10-07T16:44:45.304Z,100.00
2022-10-07T16:47:15.305Z,100.00
2022-10-07T16:49:45.706Z,100.00
2022-10-07T16:52:13.942Z,100.00
2022-10-07T16:54:43.126Z,100.00
2022-10-07T16:57:11.032Z,100.00
2022-10-07T16:59:39.537Z,100.00
2022-10-07T17:02:07.469Z,100.00
2022-10-07T17:04:35.463Z,100.00
2022-10-07T17:07:05.701Z,100.00
2022-10-07T17:09:33.589Z,100.00
2022-10-07T17:12:01.573Z,100.00
2022-10-07T17:14:31.545Z,100.00
2022-10-07T17:17:00.410Z,100.00
2022-10-07T17:19:29.423Z,100.00
2022-10-07T17:21:58.440Z,100.00
2022-10-07T17:24:28.192Z,100.00
2022-10-07T17:26:56.371Z,100.00
2022-10-07T17:29:26.151Z,100.00
2022-10-07T17:31:55.043Z,100.00
2022-10-07T17:34:23.710Z,100.00
2022-10-07T17:36:51.682Z,100.00
2022-10-07T17:39:20.014Z,100.00
2022-10-07T17:41:49.467Z,100.00
2022-10-07T17:44:17.742Z,100.00
2022-10-07T17:46:46.851Z,100.00
2022-10-07T17:49:14.999Z,100.00
2022-10-07T17:51:43.703Z,100.00
2022-10-07T17:54:13.493Z,100.00
2022-10-07T17:56:45.033Z,100.00
2022-10-07T17:59:14.536Z,100.00
2022-10-07T18:01:42.832Z,100.00
2022-10-07T18:04:14.887Z,100.00
2022-10-07T18:06:43.257Z,100.00
2022-10-07T18:09:14.910Z,100.00
2022-10-07T18:12:00.400Z,100.00
2022-10-07T18:14:52.564Z,100.00
2022-10-07T18:17:22.119Z,100.00
2022-10-07T18:19:50.392Z,100.00
2022-10-07T18:22:19.215Z,100.00
2022-10-07T18:24:47.298Z,100.00
2022-10-07T18:27:15.413Z,100.00
2022-10-07T18:29:45.181Z,100.00
2022-10-07T18:32:13.083Z,100.00
2022-10-07T18:34:41.234Z,100.00
2022-10-07T18:37:09.299Z,100.00
2022-10-07T18:39:37.442Z,100.00
2022-10-07T18:42:05.540Z,100.00
2022-10-07T18:44:33.786Z,100.00
2022-10-07T18:47:03.019Z,100.00
2022-10-07T18:49:31.018Z,100.00
2022-10-07T18:51:58.953Z,100.00
2022-10-07T18:54:27.199Z,100.00
2022-10-07T18:56:55.285Z,100.00
2022-10-07T18:59:23.386Z,100.00
2022-10-07T19:01:51.500Z,100.00
2022-10-07T19:04:21.337Z,100.00
2022-10-07T19:06:49.776Z,100.00
2022-10-07T19:09:20.300Z,100.00
2022-10-07T19:11:48.680Z,100.00
2022-10-07T19:14:16.368Z,100.00
2022-10-07T19:16:46.358Z,100.00
2022-10-07T19:19:17.632Z,100.00
2022-10-07T19:21:48.392Z,100.00
2022-10-07T19:24:17.196Z,100.00
2022-10-07T19:26:48.269Z,100.00
2022-10-07T19:29:17.854Z,100.00
2022-10-07T19:31:48.530Z,100.00
2022-10-07T19:34:18.669Z,100.00
2022-10-07T19:36:48.652Z,100.00
2022-10-07T19:39:18.444Z,100.00
2022-10-07T19:41:46.942Z,100.00
2022-10-07T19:44:16.250Z,100.00
2022-10-07T19:46:44.545Z,100.00
2022-10-07T19:49:12.619Z,100.00
2022-10-07T19:51:42.254Z,100.00
2022-10-07T19:54:12.990Z,100.00
2022-10-07T19:56:41.874Z,100.00
2022-10-07T19:59:11.700Z,100.00
2022-10-07T20:01:42.297Z,100.00
2022-10-07T20:04:13.144Z,100.00
2022-10-07T20:06:42.102Z,100.00
2022-10-07T20:09:14.145Z,100.00
2022-10-07T20:11:43.101Z,100.00
2022-10-07T20:14:11.449Z,100.00
2022-10-07T20:16:39.817Z,100.00
2022-10-07T20:19:12.102Z,100.00
2022-10-07T20:21:40.210Z,100.00
2022-10-07T20:24:09.519Z,100.00
2022-10-07T20:26:39.548Z,100.00
2022-10-07T20:29:10.120Z,100.00
2022-10-07T20:31:41.356Z,100.00
2022-10-07T20:34:12.427Z,100.00
2022-10-07T20:36:41.346Z,100.00
2022-10-07T20:39:32.560Z,100.00
2022-10-07T20:42:19.857Z,100.00
2022-10-07T20:44:48.997Z,100.00
2022-10-07T20:47:17.587Z,100.00
2022-10-07T20:49:45.719Z,100.00
2022-10-07T20:52:16.608Z,100.00
2022-10-07T20:54:45.188Z,100.00
2022-10-07T20:57:16.274Z,100.00
2022-10-07T20:59:44.864Z,100.00
2022-10-07T21:02:14.096Z,100.00
2022-10-07T21:04:42.698Z,100.00
2022-10-07T21:07:11.161Z,100.00
2022-10-07T21:09:39.822Z,100.00
2022-10-07T21:12:10.076Z,100.00
2022-10-07T21:14:39.374Z,100.00
2022-10-07T21:17:07.895Z,100.00
2022-10-07T21:19:36.617Z,100.00
2022-10-07T21:22:05.711Z,100.00
2022-10-07T21:24:35.123Z,100.00
2022-10-07T21:27:04.182Z,100.00
2022-10-07T21:29:32.264Z,100.00
2022-10-07T21:32:01.972Z,100.00
2022-10-07T21:34:30.590Z,100.00
2022-10-07T21:36:59.057Z,100.00
2022-10-07T21:39:27.015Z,100.00
2022-10-07T21:41:55.523Z,100.00
2022-10-07T21:44:23.508Z,100.00
2022-10-07T21:46:51.558Z,100.00
2022-10-07T21:49:20.913Z,100.00
2022-10-07T21:51:48.866Z,100.00
2022-10-07T21:54:16.879Z,100.00
2022-10-07T21:56:46.281Z,100.00
2022-10-07T21:59:14.464Z,100.00
2022-10-07T22:01:43.172Z,100.00
2022-10-07T22:04:17.137Z,100.00
2022-10-07T22:07:04.297Z,100.00
2022-10-07T22:09:32.369Z,100.00
2022-10-07T22:12:00.556Z,100.00
2022-10-07T22:14:28.616Z,100.00
2022-10-07T22:16:56.615Z,100.00
2022-10-07T22:19:25.204Z,100.00
2022-10-07T22:21:55.186Z,100.00
2022-10-07T22:24:23.996Z,100.00
2022-10-07T22:26:52.256Z,100.00
2022-10-07T22:29:22.830Z,100.00
2022-10-07T22:31:50.862Z,100.00
2022-10-07T22:34:37.066Z,100.00
2022-10-07T22:37:06.462Z,100.00
2022-10-07T22:39:34.437Z,100.00
2022-10-07T22:42:03.710Z,100.00
2022-10-07T22:44:31.784Z,100.00
2022-10-07T22:47:00.340Z,100.00
2022-10-07T22:49:30.220Z,100.00
2022-10-07T22:51:59.395Z,100.00
2022-10-07T22:54:29.676Z,100.00
2022-10-07T22:56:57.638Z,100.00
2022-10-07T22:59:25.746Z,100.00
2022-10-07T23:01:53.930Z,100.00
2022-10-07T23:04:21.893Z,100.00
2022-10-07T23:06:49.932Z,100.00
2022-10-07T23:09:18.028Z,100.00
2022-10-07T23:11:47.355Z,100.00
2022-10-07T23:14:15.386Z,100.00
2022-10-07T23:16:44.162Z,100.00
2022-10-07T23:19:12.261Z,100.00
2022-10-07T23:21:40.288Z,100.00
2022-10-07T23:24:09.857Z,100.00
2022-10-07T23:26:38.271Z,100.00
2022-10-07T23:29:08.473Z,100.00
2022-10-07T23:31:36.535Z,100.00
2022-10-07T23:34:06.291Z,100.00
2022-10-07T23:36:35.124Z,100.00
2022-10-07T23:39:03.268Z,100.00
2022-10-07T23:41:32.493Z,100.00
2022-10-07T23:44:02.719Z,100.00
2022-10-07T23:46:34.871Z,100.00
2022-10-07T23:49:03.689Z,100.00
2022-10-07T23:51:32.522Z,100.00
2022-10-07T23:54:02.599Z,100.00
2022-10-07T23:56:30.981Z,100.00
2022-10-07T23:58:59.253Z,100.00
